Terminal Aerodrome Forecast
Issued by NWS

Home | Current Version | Previous Version | Text Only | Print | Product List | Glossary On
Versions: 1 2 3 4 5 6 7 8 9 10 11 12 13 14 15 16 17 18 19 20 21
000
FTUS45 KTFX 051351 AAA
TAFHLN
TAF AMD
KHLN 051351Z 0514/0612 27008KT P6SM VCSH BKN045
      TEMPO 0514/0516 3SM -SN OVC015
     FM051800 31010KT P6SM BKN060
     FM060800 27006KT 5SM -SN BR OVC015=

USA.gov is the U.S. government's official web portal to all federal, state and local government web resources and services.